Portada
METAR-TAF:

METAR-TAF

Aeropuertos :

Atlantic, Iowa, Estados Unidos

latitud: 41-24N, longitud: 095-03W, altitud: 360 m

Observación

El informe se hizo hace 15 minutos, a las 00:15 UTC
Viento 6 kt del norte
Temperatura 23°C
Humedad 69%
Presión 1021 hPa
Visibilidad: 12.9 km
Cielo despejado

METAR: KAIO 020015Z AUTO 36006KT 8SM CLR 23/17 A3015 RMK AO2

Hora: 19:30 (00:30 UTC)


TAF: falta

Observaciones y pronósticos meteorológicos de más de 4000 aeropuertos (mensajes METAR y TAF).

Los puntos amarillos y rojos representan las estaciones disponibles.

Ponga el ratón en el punto deseado para ver el nombre de la estación.

Haga clic para ver las observaciones y los pronósticos meteorológicos.

Para cambiar el mapa : haga clic en los botones verdes con una cruz de color negro para hacer un zoom, en el botón verde con un guión para alejar o en las flechas verdes para mapas adyacentes.


METAR-TAF: